createdAt,value
2019-01-19T00:01:25.588Z,87.35
2019-01-19T00:04:38.418Z,87.31
2019-01-19T00:07:46.797Z,87.39
2019-01-19T00:10:51.994Z,87.66
2019-01-19T00:14:09.355Z,87.86
2019-01-19T00:17:32.962Z,87.75
2019-01-19T00:20:37.664Z,87.75
2019-01-19T00:23:33.529Z,88.61
2019-01-19T00:27:07.217Z,88.55
2019-01-19T00:30:20.948Z,88.84
2019-01-19T00:33:23.926Z,89.04
2019-01-19T00:36:18.870Z,88.81
2019-01-19T00:39:31.040Z,88.83
2019-01-19T00:42:13.322Z,88.33
2019-01-19T00:45:07.955Z,87.93
2019-01-19T00:48:25.608Z,88.21
2019-01-19T00:51:33.751Z,88.33
2019-01-19T00:54:18.684Z,88.81
2019-01-19T00:57:08.832Z,88.18
2019-01-19T00:59:41.259Z,88.63
2019-01-19T01:02:49.343Z,88.85
2019-01-19T01:05:48.515Z,89.08
2019-01-19T01:08:35.092Z,89.23
2019-01-19T01:11:31.801Z,90.07
2019-01-19T01:14:46.422Z,91.10
2019-01-19T01:17:26.967Z,91.43
2019-01-19T01:20:37.732Z,91.32
2019-01-19T01:23:30.825Z,91.19
2019-01-19T01:26:54.141Z,91.21
2019-01-19T01:29:59.680Z,91.01
2019-01-19T01:33:11.707Z,91.29
2019-01-19T01:36:08.740Z,92.03
2019-01-19T01:39:16.693Z,92.07
2019-01-19T01:42:37.934Z,92.05
2019-01-19T01:45:49.416Z,91.93
2019-01-19T01:48:36.044Z,91.70
2019-01-19T01:51:45.188Z,91.28
2019-01-19T01:54:36.022Z,91.20
2019-01-19T01:57:10.476Z,91.00
2019-01-19T01:59:56.209Z,90.78
2019-01-19T02:02:55.972Z,90.44
2019-01-19T02:05:58.094Z,90.37
2019-01-19T02:09:11.775Z,90.14
2019-01-19T02:12:54.667Z,90.64
2019-01-19T02:15:57.955Z,91.27
2019-01-19T02:18:52.930Z,91.07
2019-01-19T02:21:48.330Z,90.73
2019-01-19T02:24:49.124Z,90.78
2019-01-19T02:28:07.305Z,90.23
2019-01-19T02:30:53.885Z,89.77
2019-01-19T02:34:00.355Z,89.61
2019-01-19T02:37:14.785Z,89.84
2019-01-19T02:40:04.240Z,89.89
2019-01-19T02:42:57.514Z,89.70
2019-01-19T02:46:16.316Z,90.75
2019-01-19T02:49:29.153Z,91.11
2019-01-19T02:52:38.621Z,90.57
2019-01-19T02:55:44.342Z,90.50
2019-01-19T02:58:57.122Z,90.52
2019-01-19T03:02:01.814Z,90.96
2019-01-19T03:04:36.455Z,91.14
2019-01-19T03:07:26.964Z,91.13
2019-01-19T03:10:11.026Z,90.97
2019-01-19T03:13:29.390Z,91.11
2019-01-19T03:16:40.940Z,91.29
2019-01-19T03:19:58.777Z,91.30
2019-01-19T03:22:56.720Z,91.61
2019-01-19T03:25:38.823Z,91.78
2019-01-19T03:28:22.914Z,92.04
2019-01-19T03:31:46.901Z,91.24
2019-01-19T03:34:32.933Z,90.82
2019-01-19T03:37:48.213Z,90.47
2019-01-19T03:41:02.137Z,90.52
2019-01-19T03:44:05.605Z,90.70
2019-01-19T03:47:21.016Z,90.90
2019-01-19T03:50:07.383Z,90.78
2019-01-19T03:53:05.921Z,90.46
2019-01-19T03:56:20.411Z,90.63
2019-01-19T03:58:58.296Z,91.21
2019-01-19T04:02:06.546Z,90.74
2019-01-19T04:05:20.456Z,90.61
2019-01-19T04:08:15.294Z,91.09
2019-01-19T04:11:39.079Z,91.18
2019-01-19T04:14:54.860Z,90.95
2019-01-19T04:17:59.053Z,90.79
2019-01-19T04:21:02.471Z,91.61
2019-01-19T04:23:30.327Z,91.38
2019-01-19T04:26:06.039Z,91.60
2019-01-19T04:28:33.903Z,91.09
2019-01-19T04:31:01.736Z,90.91
2019-01-19T04:33:30.970Z,90.90
2019-01-19T04:35:58.713Z,90.51
2019-01-19T04:38:26.302Z,90.53
2019-01-19T04:40:53.982Z,90.34
2019-01-19T04:43:21.685Z,90.55
2019-01-19T04:45:49.458Z,90.34
2019-01-19T04:48:19.260Z,89.97
2019-01-19T04:50:47.032Z,89.96
2019-01-19T04:53:14.704Z,89.86
2019-01-19T04:55:42.401Z,90.18
2019-01-19T04:58:10.089Z,89.99
2019-01-19T05:00:37.896Z,89.89
2019-01-19T05:03:05.652Z,89.91
2019-01-19T05:05:33.337Z,90.11
2019-01-19T05:08:01.119Z,90.16
2019-01-19T05:10:28.830Z,90.30
2019-01-19T05:12:56.518Z,90.35
2019-01-19T05:15:24.191Z,90.30
2019-01-19T05:17:52.076Z,89.91
2019-01-19T05:20:19.799Z,89.79
2019-01-19T05:22:47.447Z,89.55
2019-01-19T05:25:15.159Z,89.93
2019-01-19T05:27:42.887Z,89.56
2019-01-19T05:30:18.196Z,88.92
2019-01-19T05:32:46.092Z,87.65
2019-01-19T05:35:14.095Z,88.36
2019-01-19T05:37:41.695Z,88.60
2019-01-19T05:40:10.205Z,88.43
2019-01-19T05:42:37.975Z,88.44
2019-01-19T05:45:06.800Z,88.54
2019-01-19T05:47:34.426Z,88.89
2019-01-19T05:50:02.051Z,88.84
2019-01-19T05:52:29.668Z,88.97
2019-01-19T05:54:57.249Z,89.10
2019-01-19T05:57:24.899Z,88.65
2019-01-19T05:59:52.540Z,88.04
2019-01-19T06:02:22.046Z,88.04
2019-01-19T06:04:49.730Z,87.83
2019-01-19T06:07:17.325Z,87.63
2019-01-19T06:09:45.043Z,87.62
2019-01-19T06:12:12.665Z,87.19
2019-01-19T06:14:40.303Z,87.62
2019-01-19T06:17:07.899Z,87.79
2019-01-19T06:19:35.785Z,87.38
2019-01-19T06:22:03.706Z,87.25
2019-01-19T06:24:31.359Z,86.63
2019-01-19T06:26:59.096Z,86.07
2019-01-19T06:29:26.801Z,86.26
2019-01-19T06:31:54.389Z,86.40
2019-01-19T06:34:22.083Z,86.12
2019-01-19T06:36:54.923Z,85.85
2019-01-19T06:39:19.275Z,85.55
2019-01-19T06:41:46.997Z,85.12
2019-01-19T06:44:14.609Z,84.42
2019-01-19T06:46:44.074Z,84.19
2019-01-19T06:49:11.704Z,85.18
2019-01-19T06:51:39.368Z,85.15
2019-01-19T06:54:07.245Z,84.94
2019-01-19T06:56:34.841Z,84.71
2019-01-19T06:59:04.809Z,84.55
2019-01-19T07:01:32.505Z,84.95
2019-01-19T07:04:00.215Z,84.72
2019-01-19T07:06:27.752Z,84.43
2019-01-19T07:08:55.430Z,84.60
2019-01-19T07:11:23.188Z,84.87
2019-01-19T07:13:50.945Z,84.98
2019-01-19T07:16:18.563Z,84.76
2019-01-19T07:18:46.269Z,83.96
2019-01-19T07:21:13.882Z,84.03
2019-01-19T07:23:41.606Z,84.61
2019-01-19T07:26:09.248Z,84.85
2019-01-19T07:28:36.880Z,84.55
2019-01-19T07:31:04.474Z,84.49
2019-01-19T07:33:33.988Z,83.62
2019-01-19T07:36:01.740Z,83.47
2019-01-19T07:38:29.551Z,83.50
2019-01-19T07:40:57.345Z,83.57
2019-01-19T07:43:25.511Z,83.41
2019-01-19T07:45:53.290Z,83.47
2019-01-19T07:48:21.103Z,83.52
2019-01-19T07:50:48.812Z,83.53
2019-01-19T07:53:16.457Z,83.71
2019-01-19T07:55:44.018Z,83.60
2019-01-19T07:58:11.693Z,83.81
2019-01-19T08:00:39.531Z,83.89
2019-01-19T08:03:07.534Z,83.66
2019-01-19T08:05:35.541Z,83.28
2019-01-19T08:08:03.564Z,82.71
2019-01-19T08:10:31.368Z,83.24
2019-01-19T08:12:59.313Z,83.46
2019-01-19T08:15:27.619Z,83.62
2019-01-19T08:17:57.676Z,82.87
2019-01-19T08:20:25.546Z,83.00
2019-01-19T08:22:53.528Z,83.68
2019-01-19T08:25:21.496Z,84.04
2019-01-19T08:27:49.761Z,83.67
2019-01-19T08:30:20.108Z,83.58
2019-01-19T08:32:49.831Z,83.33
2019-01-19T08:35:18.239Z,83.09
2019-01-19T08:37:46.619Z,82.28
2019-01-19T08:40:16.893Z,82.15
2019-01-19T08:42:49.742Z,82.17
2019-01-19T08:45:18.288Z,82.26
2019-01-19T08:47:46.488Z,81.04
2019-01-19T08:50:14.678Z,81.81
2019-01-19T08:52:43.666Z,82.36
2019-01-19T08:55:11.606Z,81.08
2019-01-19T08:57:40.507Z,80.99
2019-01-19T09:00:11.986Z,80.73
2019-01-19T09:02:40.055Z,80.50
2019-01-19T09:05:08.712Z,81.37
2019-01-19T09:07:36.765Z,80.51
2019-01-19T09:10:06.238Z,80.17
2019-01-19T09:12:34.169Z,79.86
2019-01-19T09:15:02.015Z,80.18
2019-01-19T09:17:30.037Z,79.46
2019-01-19T09:19:58.126Z,78.96
2019-01-19T09:22:26.040Z,78.65
2019-01-19T09:24:54.221Z,77.87
2019-01-19T09:27:22.089Z,78.01
2019-01-19T09:29:50.302Z,77.84
2019-01-19T09:32:18.428Z,78.27
2019-01-19T09:34:46.819Z,78.31
2019-01-19T09:37:14.668Z,77.82
2019-01-19T09:39:42.647Z,77.44
2019-01-19T09:42:10.477Z,76.75
2019-01-19T09:44:38.586Z,76.34
2019-01-19T09:47:06.574Z,77.07
2019-01-19T09:49:34.899Z,76.75
2019-01-19T09:52:02.690Z,77.02
2019-01-19T09:54:35.383Z,77.15
2019-01-19T09:57:03.366Z,76.74
2019-01-19T09:59:31.548Z,76.92
2019-01-19T10:02:02.275Z,75.43
2019-01-19T10:04:30.401Z,75.74
2019-01-19T10:07:00.943Z,76.01
2019-01-19T10:09:31.613Z,75.65
2019-01-19T10:11:59.635Z,75.25
2019-01-19T10:14:28.938Z,74.39
2019-01-19T10:16:57.068Z,74.23
2019-01-19T10:19:27.493Z,74.39
2019-01-19T10:21:58.564Z,75.06
2019-01-19T10:24:26.519Z,75.16
2019-01-19T10:26:54.688Z,75.22
2019-01-19T10:29:23.003Z,75.76
2019-01-19T10:31:50.926Z,74.70
2019-01-19T10:34:18.816Z,74.13
2019-01-19T10:36:46.597Z,74.69
2019-01-19T10:39:14.469Z,74.92
2019-01-19T10:41:42.666Z,74.90
2019-01-19T10:44:10.603Z,74.55
2019-01-19T10:46:38.646Z,74.42
2019-01-19T10:49:07.627Z,73.81
2019-01-19T10:51:35.607Z,74.23
2019-01-19T10:54:03.637Z,73.36
2019-01-19T10:56:31.532Z,73.00
2019-01-19T10:58:59.776Z,72.82
2019-01-19T11:01:27.727Z,72.74
2019-01-19T11:03:56.176Z,72.22
2019-01-19T11:06:24.359Z,72.79
2019-01-19T11:08:52.430Z,71.59
2019-01-19T11:11:20.309Z,72.21
2019-01-19T11:13:48.357Z,70.38
2019-01-19T11:16:16.680Z,70.38
2019-01-19T11:18:44.730Z,71.49
2019-01-19T11:21:12.707Z,71.61
2019-01-19T11:23:40.647Z,71.34
2019-01-19T11:26:08.617Z,70.97
2019-01-19T11:28:39.687Z,71.70
2019-01-19T11:31:07.688Z,71.88
2019-01-19T11:33:35.782Z,72.35
2019-01-19T11:36:04.079Z,71.82
2019-01-19T11:38:32.428Z,70.98
2019-01-19T11:41:01.976Z,69.11
2019-01-19T11:43:30.123Z,68.28
2019-01-19T11:45:58.149Z,69.15
2019-01-19T11:48:28.439Z,68.57
2019-01-19T11:50:56.659Z,68.27
2019-01-19T11:53:24.804Z,66.77
2019-01-19T11:55:52.979Z,67.05
2019-01-19T11:58:25.477Z,68.58
2019-01-19T12:00:53.448Z,68.50
2019-01-19T12:03:21.768Z,69.40
2019-01-19T12:05:49.940Z,69.89
2019-01-19T12:08:19.734Z,69.76
2019-01-19T12:10:47.894Z,68.81
2019-01-19T12:13:16.140Z,68.38
2019-01-19T12:15:44.290Z,68.21
2019-01-19T12:18:12.306Z,67.55
2019-01-19T12:20:45.480Z,67.21
2019-01-19T12:23:13.367Z,67.72
2019-01-19T12:25:41.301Z,67.20
2019-01-19T12:28:09.341Z,65.61
2019-01-19T12:30:37.234Z,65.82
2019-01-19T12:33:05.207Z,66.01
2019-01-19T12:35:33.157Z,66.41
2019-01-19T12:38:01.157Z,66.41
2019-01-19T12:40:29.323Z,66.63
2019-01-19T12:42:59.623Z,66.87
2019-01-19T12:45:38.863Z,67.13
2019-01-19T12:48:06.812Z,66.75
2019-01-19T12:50:34.822Z,66.49
2019-01-19T12:53:02.721Z,66.82
2019-01-19T12:55:30.780Z,67.12
2019-01-19T12:58:00.139Z,67.55
2019-01-19T13:00:28.501Z,67.03
2019-01-19T13:02:56.439Z,66.78
2019-01-19T13:05:30.697Z,67.08
2019-01-19T13:07:58.781Z,67.17
2019-01-19T13:10:49.182Z,67.38
2019-01-19T13:13:20.802Z,66.98
2019-01-19T13:16:29.132Z,67.47
2019-01-19T13:19:19.309Z,68.73
2019-01-19T13:22:18.916Z,68.58
2019-01-19T13:25:13.122Z,68.05
2019-01-19T13:28:18.102Z,69.17
2019-01-19T13:31:20.672Z,69.34
2019-01-19T13:34:25.751Z,68.39
2019-01-19T13:37:34.408Z,68.81
2019-01-19T13:40:16.952Z,67.47
2019-01-19T13:43:43.311Z,67.46
2019-01-19T13:46:27.503Z,67.76
2019-01-19T13:49:28.765Z,69.17
2019-01-19T13:52:07.933Z,69.59
2019-01-19T13:55:25.874Z,69.71
2019-01-19T13:58:24.475Z,70.07
2019-01-19T14:01:44.764Z,70.91
2019-01-19T14:04:33.156Z,70.74
2019-01-19T14:07:24.737Z,71.35
2019-01-19T14:10:40.246Z,71.23
2019-01-19T14:13:29.084Z,71.55
2019-01-19T14:16:40.291Z,69.81
2019-01-19T14:19:41.130Z,70.50
2019-01-19T14:22:40.260Z,70.48
2019-01-19T14:25:45.170Z,70.81
2019-01-19T14:28:57.656Z,71.37
2019-01-19T14:32:12.071Z,71.96
2019-01-19T14:35:18.666Z,72.03
2019-01-19T14:38:28.190Z,72.71
2019-01-19T14:41:46.824Z,72.57
2019-01-19T14:44:58.608Z,72.77
2019-01-19T14:48:07.453Z,72.94
2019-01-19T14:50:48.250Z,73.65
2019-01-19T14:53:44.112Z,73.79
2019-01-19T14:56:51.704Z,74.44
2019-01-19T15:00:01.552Z,74.35
2019-01-19T15:02:56.598Z,74.16
2019-01-19T15:05:40.183Z,74.67
2019-01-19T15:08:39.897Z,74.52
2019-01-19T15:11:44.842Z,74.64
2019-01-19T15:14:37.201Z,74.83
2019-01-19T15:17:59.072Z,75.22
2019-01-19T15:20:47.391Z,75.35
2019-01-19T15:24:00.237Z,75.49
2019-01-19T15:26:54.102Z,75.54
2019-01-19T15:29:47.032Z,75.77
2019-01-19T15:33:17.986Z,75.89
2019-01-19T15:36:12.570Z,76.15
2019-01-19T15:39:25.970Z,75.85
2019-01-19T15:42:24.403Z,75.90
2019-01-19T15:45:52.625Z,75.63
2019-01-19T15:48:54.240Z,75.95
2019-01-19T15:51:55.519Z,76.26
2019-01-19T15:54:44.192Z,76.35
2019-01-19T15:58:08.620Z,76.34
2019-01-19T16:00:50.489Z,76.45
2019-01-19T16:03:36.032Z,76.88
2019-01-19T16:06:43.947Z,77.10
2019-01-19T16:10:08.876Z,76.95
2019-01-19T16:13:14.170Z,76.86
2019-01-19T16:16:21.965Z,77.11
2019-01-19T16:19:27.722Z,76.92
2019-01-19T16:22:09.300Z,76.61
2019-01-19T16:25:19.415Z,76.67
2019-01-19T16:28:29.498Z,76.94
2019-01-19T16:31:27.804Z,76.62
2019-01-19T16:34:51.483Z,77.11
2019-01-19T16:37:39.741Z,77.46
2019-01-19T16:40:28.571Z,77.76
2019-01-19T16:43:21.066Z,77.72
2019-01-19T16:46:13.222Z,77.50
2019-01-19T16:49:12.820Z,77.72
2019-01-19T16:52:23.202Z,77.89
2019-01-19T16:55:16.830Z,78.05
2019-01-19T16:58:15.042Z,78.54
2019-01-19T17:01:23.394Z,78.56
2019-01-19T17:04:29.950Z,78.81
2019-01-19T17:07:15.504Z,78.62
2019-01-19T17:10:09.476Z,78.01
2019-01-19T17:13:15.387Z,78.22
2019-01-19T17:15:57.180Z,77.74
2019-01-19T17:18:54.336Z,77.98
2019-01-19T17:22:19.160Z,78.07
2019-01-19T17:25:26.792Z,78.45
2019-01-19T17:28:17.195Z,78.84
2019-01-19T17:31:39.435Z,79.47
2019-01-19T17:35:07.344Z,79.33
2019-01-19T17:38:08.876Z,79.26
2019-01-19T17:41:07.148Z,79.19
2019-01-19T17:44:04.880Z,79.25
2019-01-19T17:46:51.612Z,79.64
2019-01-19T17:49:49.357Z,79.46
2019-01-19T17:52:56.139Z,79.01
2019-01-19T17:55:47.213Z,79.35
2019-01-19T17:58:59.819Z,79.01
2019-01-19T18:01:53.298Z,78.48
2019-01-19T18:04:39.224Z,79.12
2019-01-19T18:07:23.543Z,79.34
2019-01-19T18:10:36.023Z,79.26
2019-01-19T18:13:28.502Z,79.83
2019-01-19T18:16:36.608Z,80.26
2019-01-19T18:19:41.171Z,81.36
2019-01-19T18:22:54.344Z,81.31
2019-01-19T18:25:30.627Z,81.08
2019-01-19T18:28:55.436Z,80.64
2019-01-19T18:31:54.052Z,80.56
2019-01-19T18:35:12.955Z,80.54
2019-01-19T18:38:17.602Z,80.37
2019-01-19T18:41:36.327Z,80.71
2019-01-19T18:45:00.475Z,80.55
2019-01-19T18:48:14.180Z,80.00
2019-01-19T18:51:22.722Z,79.57
2019-01-19T18:54:27.645Z,79.89
2019-01-19T18:57:52.070Z,79.71
2019-01-19T19:00:54.462Z,80.10
2019-01-19T19:04:12.936Z,80.26
2019-01-19T19:07:25.461Z,80.21
2019-01-19T19:10:06.296Z,80.53
2019-01-19T19:13:00.386Z,81.02
2019-01-19T19:16:07.501Z,81.17
2019-01-19T19:19:08.618Z,81.33
2019-01-19T19:22:21.098Z,81.59
2019-01-19T19:25:36.308Z,81.40
2019-01-19T19:28:38.477Z,81.84
2019-01-19T19:31:35.840Z,82.02
2019-01-19T19:34:35.961Z,81.93
2019-01-19T19:37:54.650Z,82.20
2019-01-19T19:40:44.880Z,82.14
2019-01-19T19:43:37.908Z,82.12
2019-01-19T19:46:47.525Z,82.10
2019-01-19T19:49:52.498Z,82.12
2019-01-19T19:52:27.770Z,81.67
2019-01-19T19:54:50.832Z,81.95
2019-01-19T19:57:19.379Z,82.05
2019-01-19T19:59:47.804Z,82.03
2019-01-19T20:02:16.069Z,81.98
2019-01-19T20:04:44.138Z,82.26
2019-01-19T20:07:12.453Z,81.96
2019-01-19T20:09:41.059Z,90.52
2019-01-19T20:12:09.557Z,94.66
2019-01-19T20:14:37.746Z,85.17
2019-01-19T20:17:07.413Z,81.85
2019-01-19T20:19:35.591Z,76.68
2019-01-19T20:22:04.031Z,73.83
2019-01-19T20:24:32.327Z,74.70
2019-01-19T20:27:00.587Z,75.51
2019-01-19T20:29:28.797Z,76.58
2019-01-19T20:31:56.976Z,77.75
2019-01-19T20:34:24.990Z,78.83
2019-01-19T20:36:56.257Z,79.04
2019-01-19T20:39:24.856Z,79.51
2019-01-19T20:41:55.677Z,79.76
2019-01-19T20:44:24.033Z,80.22
2019-01-19T20:46:52.290Z,80.77
2019-01-19T20:49:20.259Z,81.16
2019-01-19T20:51:48.576Z,81.16
2019-01-19T20:54:16.754Z,81.29
2019-01-19T20:56:45.937Z,81.41
2019-01-19T20:59:13.939Z,81.57
2019-01-19T21:01:45.232Z,81.82
2019-01-19T21:04:15.917Z,81.39
2019-01-19T21:06:43.839Z,81.92
2019-01-19T21:09:11.866Z,81.49
2019-01-19T21:11:40.198Z,81.22
2019-01-19T21:14:08.628Z,80.92
2019-01-19T21:16:36.639Z,80.70
2019-01-19T21:19:04.652Z,80.65
2019-01-19T21:21:33.240Z,81.15
2019-01-19T21:24:01.602Z,80.46
2019-01-19T21:26:31.621Z,80.72
2019-01-19T21:28:59.717Z,80.78
2019-01-19T21:31:28.042Z,80.46
2019-01-19T21:34:00.040Z,80.32
2019-01-19T21:36:31.205Z,80.68
2019-01-19T21:39:03.718Z,80.46
2019-01-19T21:41:33.254Z,80.56
2019-01-19T21:44:01.906Z,80.46
2019-01-19T21:46:30.266Z,80.32
2019-01-19T21:48:59.609Z,80.23
2019-01-19T21:51:27.721Z,80.24
2019-01-19T21:53:56.041Z,79.97
2019-01-19T21:56:24.056Z,79.80
2019-01-19T21:58:52.348Z,80.03
2019-01-19T22:01:20.290Z,80.13
2019-01-19T22:03:48.314Z,80.40
2019-01-19T22:06:16.250Z,80.89
2019-01-19T22:08:44.236Z,80.13
2019-01-19T22:11:12.386Z,80.45
2019-01-19T22:13:40.619Z,80.20
2019-01-19T22:16:08.891Z,80.46
2019-01-19T22:18:37.010Z,79.92
2019-01-19T22:21:05.441Z,80.02
2019-01-19T22:23:33.820Z,80.14
2019-01-19T22:26:02.048Z,80.17
2019-01-19T22:28:30.236Z,79.66
2019-01-19T22:30:58.354Z,79.15
2019-01-19T22:33:26.748Z,79.64
2019-01-19T22:35:55.409Z,79.83
2019-01-19T22:38:23.670Z,80.29
2019-01-19T22:40:53.743Z,80.22
2019-01-19T22:43:29.183Z,80.14
2019-01-19T22:45:57.564Z,80.79
2019-01-19T22:48:27.031Z,80.01
2019-01-19T22:50:55.024Z,79.93
2019-01-19T22:53:23.140Z,79.89
2019-01-19T22:55:51.300Z,79.96
2019-01-19T22:58:19.476Z,79.93
2019-01-19T23:01:18.933Z,79.74
2019-01-19T23:03:47.251Z,80.11
2019-01-19T23:06:15.534Z,80.69
2019-01-19T23:08:43.476Z,80.74
2019-01-19T23:11:11.620Z,80.33
2019-01-19T23:13:39.684Z,80.32
2019-01-19T23:16:07.876Z,80.45
2019-01-19T23:18:35.999Z,79.95
2019-01-19T23:21:04.198Z,79.88
2019-01-19T23:23:32.080Z,80.10
2019-01-19T23:26:01.927Z,80.62
2019-01-19T23:28:30.427Z,80.73
2019-01-19T23:30:58.757Z,81.00
2019-01-19T23:33:27.034Z,81.15
2019-01-19T23:35:55.141Z,81.03
2019-01-19T23:38:23.487Z,80.66
2019-01-19T23:40:51.436Z,80.73
2019-01-19T23:43:19.825Z,80.67
2019-01-19T23:45:48.122Z,80.32
2019-01-19T23:48:16.162Z,81.22
2019-01-19T23:50:44.245Z,81.45
2019-01-19T23:53:12.324Z,81.12
2019-01-19T23:55:42.679Z,81.40
2019-01-19T23:58:10.848Z,82.04
